sensor_id;sensor_type;location;lat;lon;timestamp;pressure;altitude;pressure_sealevel;temperature;humidity
69971;BME280;57301;50.328;8.542;2023-04-23T00:01:16;97745.50;;;11.91;97.10
69971;BME280;57301;50.328;8.542;2023-04-23T00:03:46;97747.25;;;11.99;96.16
69971;BME280;57301;50.328;8.542;2023-04-23T00:06:15;97753.72;;;12.04;96.40
69971;BME280;57301;50.328;8.542;2023-04-23T00:08:46;97744.75;;;11.97;96.72
69971;BME280;57301;50.328;8.542;2023-04-23T00:11:13;97738.94;;;11.94;96.76
69971;BME280;57301;50.328;8.542;2023-04-23T00:13:40;97743.56;;;12.00;96.72
69971;BME280;57301;50.328;8.542;2023-04-23T00:16:07;97739.41;;;11.97;96.63
69971;BME280;57301;50.328;8.542;2023-04-23T00:18:33;97739.88;;;12.01;96.33
69971;BME280;57301;50.328;8.542;2023-04-23T00:21:03;97747.78;;;11.94;97.10
69971;BME280;57301;50.328;8.542;2023-04-23T00:23:29;97737.19;;;11.86;98.13
69971;BME280;57301;50.328;8.542;2023-04-23T00:25:56;97753.06;;;11.79;99.07
69971;BME280;57301;50.328;8.542;2023-04-23T00:28:22;97742.81;;;11.68;99.12
69971;BME280;57301;50.328;8.542;2023-04-23T00:30:49;97746.94;;;11.71;99.09
69971;BME280;57301;50.328;8.542;2023-04-23T00:33:15;97747.31;;;11.68;99.09
69971;BME280;57301;50.328;8.542;2023-04-23T00:35:42;97747.84;;;11.63;98.98
69971;BME280;57301;50.328;8.542;2023-04-23T00:38:08;97751.16;;;11.65;99.55
69971;BME280;57301;50.328;8.542;2023-04-23T00:40:35;97752.28;;;11.71;98.86
69971;BME280;57301;50.328;8.542;2023-04-23T00:43:03;97750.09;;;11.74;99.19
69971;BME280;57301;50.328;8.542;2023-04-23T00:45:29;97751.53;;;11.62;100.00
69971;BME280;57301;50.328;8.542;2023-04-23T00:47:57;97748.03;;;11.62;100.00
69971;BME280;57301;50.328;8.542;2023-04-23T00:50:24;97752.16;;;11.64;99.13
69971;BME280;57301;50.328;8.542;2023-04-23T00:52:50;97747.66;;;11.65;99.63
69971;BME280;57301;50.328;8.542;2023-04-23T00:55:17;97748.91;;;11.77;98.29
69971;BME280;57301;50.328;8.542;2023-04-23T00:57:46;97745.72;;;11.81;98.20
69971;BME280;57301;50.328;8.542;2023-04-23T01:00:14;97753.22;;;11.86;97.75
69971;BME280;57301;50.328;8.542;2023-04-23T01:02:41;97762.59;;;11.82;97.56
69971;BME280;57301;50.328;8.542;2023-04-23T01:05:09;97755.31;;;11.68;97.05
69971;BME280;57301;50.328;8.542;2023-04-23T01:07:37;97754.38;;;11.61;97.07
69971;BME280;57301;50.328;8.542;2023-04-23T01:10:04;97744.22;;;11.56;95.76
69971;BME280;57301;50.328;8.542;2023-04-23T01:12:30;97746.59;;;11.51;93.60
69971;BME280;57301;50.328;8.542;2023-04-23T01:14:57;97754.31;;;11.46;92.95
69971;BME280;57301;50.328;8.542;2023-04-23T01:17:24;97752.94;;;11.50;92.84
69971;BME280;57301;50.328;8.542;2023-04-23T01:19:52;97755.25;;;11.53;92.55
69971;BME280;57301;50.328;8.542;2023-04-23T01:22:18;97755.31;;;11.45;93.79
69971;BME280;57301;50.328;8.542;2023-04-23T01:24:46;97759.66;;;11.46;94.35
69971;BME280;57301;50.328;8.542;2023-04-23T01:27:12;97765.50;;;11.41;94.60
69971;BME280;57301;50.328;8.542;2023-04-23T01:29:39;97755.25;;;11.30;96.01
69971;BME280;57301;50.328;8.542;2023-04-23T01:32:07;97761.13;;;11.25;95.98
69971;BME280;57301;50.328;8.542;2023-04-23T01:34:34;97762.72;;;11.12;96.22
69971;BME280;57301;50.328;8.542;2023-04-23T01:37:02;97762.91;;;11.02;96.87
69971;BME280;57301;50.328;8.542;2023-04-23T01:39:29;97756.00;;;11.16;95.44
69971;BME280;57301;50.328;8.542;2023-04-23T01:41:56;97756.69;;;11.10;96.15
69971;BME280;57301;50.328;8.542;2023-04-23T01:44:22;97756.34;;;11.13;95.78
69971;BME280;57301;50.328;8.542;2023-04-23T01:46:48;97756.69;;;11.10;95.38
69971;BME280;57301;50.328;8.542;2023-04-23T01:49:15;97759.53;;;11.08;94.91
69971;BME280;57301;50.328;8.542;2023-04-23T01:51:42;97757.53;;;11.10;95.74
69971;BME280;57301;50.328;8.542;2023-04-23T01:54:08;97754.03;;;11.10;95.94
69971;BME280;57301;50.328;8.542;2023-04-23T01:56:35;97758.22;;;11.04;95.63
69971;BME280;57301;50.328;8.542;2023-04-23T01:59:01;97756.75;;;11.01;95.49
69971;BME280;57301;50.328;8.542;2023-04-23T02:01:44;97760.41;;;11.00;95.41
69971;BME280;57301;50.328;8.542;2023-04-23T02:04:13;97757.13;;;10.90;96.12
69971;BME280;57301;50.328;8.542;2023-04-23T02:06:41;97766.44;;;10.94;97.46
69971;BME280;57301;50.328;8.542;2023-04-23T02:09:08;97761.13;;;10.86;97.52
69971;BME280;57301;50.328;8.542;2023-04-23T02:11:35;97769.13;;;10.86;97.53
69971;BME280;57301;50.328;8.542;2023-04-23T02:14:03;97771.16;;;10.84;98.03
69971;BME280;57301;50.328;8.542;2023-04-23T02:16:30;97773.69;;;10.77;97.86
69971;BME280;57301;50.328;8.542;2023-04-23T02:18:58;97779.34;;;10.83;98.17
69971;BME280;57301;50.328;8.542;2023-04-23T02:21:24;97773.50;;;10.79;98.06
69971;BME280;57301;50.328;8.542;2023-04-23T02:23:52;97778.09;;;10.62;98.34
69971;BME280;57301;50.328;8.542;2023-04-23T02:26:19;97776.53;;;10.76;98.49
69971;BME280;57301;50.328;8.542;2023-04-23T02:28:47;97775.91;;;10.66;99.13
69971;BME280;57301;50.328;8.542;2023-04-23T02:31:14;97782.56;;;10.70;98.57
69971;BME280;57301;50.328;8.542;2023-04-23T02:33:41;97774.41;;;10.63;97.92
69971;BME280;57301;50.328;8.542;2023-04-23T02:36:08;97767.72;;;10.67;98.11
69971;BME280;57301;50.328;8.542;2023-04-23T02:38:36;97772.22;;;10.67;98.30
69971;BME280;57301;50.328;8.542;2023-04-23T02:41:03;97764.91;;;10.61;98.41
69971;BME280;57301;50.328;8.542;2023-04-23T02:43:30;97771.88;;;10.70;98.84
69971;BME280;57301;50.328;8.542;2023-04-23T02:45:56;97777.56;;;10.67;99.30
69971;BME280;57301;50.328;8.542;2023-04-23T02:48:23;97771.75;;;10.63;99.79
69971;BME280;57301;50.328;8.542;2023-04-23T02:50:51;97769.72;;;10.65;100.00
69971;BME280;57301;50.328;8.542;2023-04-23T02:53:17;97770.75;;;10.64;100.00
69971;BME280;57301;50.328;8.542;2023-04-23T02:55:44;97777.09;;;10.63;99.41
69971;BME280;57301;50.328;8.542;2023-04-23T02:58:10;97776.53;;;10.76;99.03
69971;BME280;57301;50.328;8.542;2023-04-23T03:00:37;97781.19;;;10.74;99.45
69971;BME280;57301;50.328;8.542;2023-04-23T03:03:04;97783.72;;;10.75;99.53
69971;BME280;57301;50.328;8.542;2023-04-23T03:05:30;97778.69;;;10.72;99.42
69971;BME280;57301;50.328;8.542;2023-04-23T03:07:57;97780.22;;;10.67;100.00
69971;BME280;57301;50.328;8.542;2023-04-23T03:10:23;97784.53;;;10.68;100.00
69971;BME280;57301;50.328;8.542;2023-04-23T03:12:50;97785.22;;;10.70;100.00
69971;BME280;57301;50.328;8.542;2023-04-23T03:15:16;97774.03;;;10.74;100.00
69971;BME280;57301;50.328;8.542;2023-04-23T03:17:43;97775.72;;;10.67;100.00
69971;BME280;57301;50.328;8.542;2023-04-23T03:20:09;97778.38;;;10.67;100.00
69971;BME280;57301;50.328;8.542;2023-04-23T03:22:36;97780.91;;;10.69;99.30
69971;BME280;57301;50.328;8.542;2023-04-23T03:25:03;97786.53;;;10.74;99.13
69971;BME280;57301;50.328;8.542;2023-04-23T03:27:30;97781.38;;;10.72;98.92
69971;BME280;57301;50.328;8.542;2023-04-23T03:29:57;97778.75;;;10.64;98.95
69971;BME280;57301;50.328;8.542;2023-04-23T03:32:23;97775.91;;;10.66;99.27
69971;BME280;57301;50.328;8.542;2023-04-23T03:34:50;97779.72;;;10.71;98.94
69971;BME280;57301;50.328;8.542;2023-04-23T03:37:16;97775.72;;;10.67;98.53
69971;BME280;57301;50.328;8.542;2023-04-23T03:39:42;97781.72;;;10.69;98.67
69971;BME280;57301;50.328;8.542;2023-04-23T03:42:09;97774.22;;;10.65;99.00
69971;BME280;57301;50.328;8.542;2023-04-23T03:44:35;97778.09;;;10.62;99.14
69971;BME280;57301;50.328;8.542;2023-04-23T03:47:02;97784.75;;;10.58;99.69
69971;BME280;57301;50.328;8.542;2023-04-23T03:49:28;97784.56;;;10.60;98.58
69971;BME280;57301;50.328;8.542;2023-04-23T03:51:55;97790.41;;;10.63;97.63
69971;BME280;57301;50.328;8.542;2023-04-23T03:54:21;97794.22;;;10.61;97.90
69971;BME280;57301;50.328;8.542;2023-04-23T03:56:49;97791.75;;;10.59;98.02
69971;BME280;57301;50.328;8.542;2023-04-23T03:59:16;97793.75;;;10.57;98.11
69971;BME280;57301;50.328;8.542;2023-04-23T04:01:42;97789.44;;;10.48;99.39
69971;BME280;57301;50.328;8.542;2023-04-23T04:04:09;97792.59;;;10.52;98.32
69971;BME280;57301;50.328;8.542;2023-04-23T04:06:36;97791.78;;;10.51;98.83
69971;BME280;57301;50.328;8.542;2023-04-23T04:09:02;97801.44;;;10.52;98.62
69971;BME280;57301;50.328;8.542;2023-04-23T04:11:29;97799.78;;;10.43;100.00
69971;BME280;57301;50.328;8.542;2023-04-23T04:13:55;97795.13;;;10.45;99.92
69971;BME280;57301;50.328;8.542;2023-04-23T04:16:21;97800.97;;;10.40;99.29
69971;BME280;57301;50.328;8.542;2023-04-23T04:18:51;97803.63;;;10.24;100.00
69971;BME280;57301;50.328;8.542;2023-04-23T04:21:21;97807.94;;;10.17;100.00
69971;BME280;57301;50.328;8.542;2023-04-23T04:23:47;97807.31;;;10.07;100.00
69971;BME280;57301;50.328;8.542;2023-04-23T04:26:14;97800.81;;;10.09;100.00
69971;BME280;57301;50.328;8.542;2023-04-23T04:28:40;97800.63;;;9.86;100.00
69971;BME280;57301;50.328;8.542;2023-04-23T04:31:08;97804.16;;;9.95;100.00
69971;BME280;57301;50.328;8.542;2023-04-23T04:33:35;97802.66;;;9.84;100.00
69971;BME280;57301;50.328;8.542;2023-04-23T04:36:05;97813.97;;;9.94;100.00
69971;BME280;57301;50.328;8.542;2023-04-23T04:38:34;97810.13;;;9.89;100.00
69971;BME280;57301;50.328;8.542;2023-04-23T04:41:03;97818.94;;;9.98;100.00
69971;BME280;57301;50.328;8.542;2023-04-23T04:43:30;97818.63;;;9.84;100.00
69971;BME280;57301;50.328;8.542;2023-04-23T04:45:57;97814.28;;;9.91;100.00
69971;BME280;57301;50.328;8.542;2023-04-23T04:48:27;97811.13;;;9.80;100.00
69971;BME280;57301;50.328;8.542;2023-04-23T04:50:53;97807.97;;;9.76;100.00
69971;BME280;57301;50.328;8.542;2023-04-23T04:53:20;97809.81;;;9.84;100.00
69971;BME280;57301;50.328;8.542;2023-04-23T04:55:47;97819.28;;;9.70;100.00
69971;BME280;57301;50.328;8.542;2023-04-23T04:58:13;97821.59;;;9.73;100.00
69971;BME280;57301;50.328;8.542;2023-04-23T05:00:40;97823.25;;;9.74;100.00
69971;BME280;57301;50.328;8.542;2023-04-23T05:03:06;97820.28;;;9.77;100.00
69971;BME280;57301;50.328;8.542;2023-04-23T05:05:34;97824.44;;;9.88;100.00
69971;BME280;57301;50.328;8.542;2023-04-23T05:08:00;97823.09;;;10.00;100.00
69971;BME280;57301;50.328;8.542;2023-04-23T05:10:29;97823.97;;;10.01;100.00
69971;BME280;57301;50.328;8.542;2023-04-23T05:12:56;97811.97;;;10.13;99.33
69971;BME280;57301;50.328;8.542;2023-04-23T05:15:23;97817.59;;;10.18;98.59
69971;BME280;57301;50.328;8.542;2023-04-23T05:17:49;97814.63;;;10.21;99.13
69971;BME280;57301;50.328;8.542;2023-04-23T05:20:19;97815.13;;;10.25;99.20
69971;BME280;57301;50.328;8.542;2023-04-23T05:22:46;97814.44;;;10.31;99.27
69971;BME280;57301;50.328;8.542;2023-04-23T05:25:13;97811.28;;;10.35;99.41
69971;BME280;57301;50.328;8.542;2023-04-23T05:27:40;97806.25;;;10.48;98.51
69971;BME280;57301;50.328;8.542;2023-04-23T05:30:07;97801.06;;;10.63;97.56
69971;BME280;57301;50.328;8.542;2023-04-23T05:32:35;97801.72;;;10.65;98.49
69971;BME280;57301;50.328;8.542;2023-04-23T05:35:02;97803.91;;;10.54;99.19
69971;BME280;57301;50.328;8.542;2023-04-23T05:37:29;97803.91;;;10.54;96.42
69971;BME280;57301;50.328;8.542;2023-04-23T05:39:56;97797.88;;;10.76;96.81
69971;BME280;57301;50.328;8.542;2023-04-23T05:42:23;97807.94;;;10.97;96.36
69971;BME280;57301;50.328;8.542;2023-04-23T05:44:50;97802.56;;;11.90;89.82
69971;BME280;57301;50.328;8.542;2023-04-23T05:47:16;97809.03;;;11.73;91.17
69971;BME280;57301;50.328;8.542;2023-04-23T05:49:43;97806.22;;;13.60;85.35
69971;BME280;57301;50.328;8.542;2023-04-23T05:52:09;97804.59;;;15.75;74.80
69971;BME280;57301;50.328;8.542;2023-04-23T05:54:36;97806.69;;;15.79;70.98
69971;BME280;57301;50.328;8.542;2023-04-23T05:57:03;97817.69;;;16.77;67.05
69971;BME280;57301;50.328;8.542;2023-04-23T05:59:30;97815.94;;;17.61;64.81
69971;BME280;57301;50.328;8.542;2023-04-23T06:01:57;97812.69;;;16.94;64.84
69971;BME280;57301;50.328;8.542;2023-04-23T06:04:23;97822.31;;;17.28;64.57
69971;BME280;57301;50.328;8.542;2023-04-23T06:06:50;97816.34;;;18.03;62.46
69971;BME280;57301;50.328;8.542;2023-04-23T06:09:17;97816.44;;;18.71;59.17
69971;BME280;57301;50.328;8.542;2023-04-23T06:11:43;97815.44;;;19.27;56.97
69971;BME280;57301;50.328;8.542;2023-04-23T06:14:10;97808.84;;;19.59;53.82
69971;BME280;57301;50.328;8.542;2023-04-23T06:16:36;97816.25;;;19.94;53.62
69971;BME280;57301;50.328;8.542;2023-04-23T06:19:03;97810.81;;;20.24;52.49
69971;BME280;57301;50.328;8.542;2023-04-23T06:21:29;97806.94;;;21.49;48.29
69971;BME280;57301;50.328;8.542;2023-04-23T06:23:56;97812.47;;;19.17;52.00
69971;BME280;57301;50.328;8.542;2023-04-23T06:26:23;97811.03;;;18.46;53.49
69971;BME280;57301;50.328;8.542;2023-04-23T06:28:49;97808.31;;;17.96;54.87
69971;BME280;57301;50.328;8.542;2023-04-23T06:31:16;97810.31;;;18.82;53.15
69971;BME280;57301;50.328;8.542;2023-04-23T06:33:42;97799.72;;;19.54;51.93
69971;BME280;57301;50.328;8.542;2023-04-23T06:36:09;97810.91;;;17.71;56.08
69971;BME280;57301;50.328;8.542;2023-04-23T06:38:36;97804.44;;;16.29;60.89
69971;BME280;57301;50.328;8.542;2023-04-23T06:41:03;97813.09;;;15.78;63.44
69971;BME280;57301;50.328;8.542;2023-04-23T06:43:30;97812.22;;;15.17;65.34
69971;BME280;57301;50.328;8.542;2023-04-23T06:45:56;97812.22;;;14.26;67.78
69971;BME280;57301;50.328;8.542;2023-04-23T06:48:23;97809.63;;;17.87;58.49
69971;BME280;57301;50.328;8.542;2023-04-23T06:50:51;97809.56;;;18.75;54.03
69971;BME280;57301;50.328;8.542;2023-04-23T06:53:17;97805.59;;;17.96;55.24
69971;BME280;57301;50.328;8.542;2023-04-23T06:55:44;97828.22;;;17.57;54.68
69971;BME280;57301;50.328;8.542;2023-04-23T06:58:11;97804.22;;;20.20;50.21
69971;BME280;57301;50.328;8.542;2023-04-23T07:00:39;97811.84;;;20.11;49.23
69971;BME280;57301;50.328;8.542;2023-04-23T07:03:06;97804.28;;;20.90;46.70
69971;BME280;57301;50.328;8.542;2023-04-23T07:05:33;97807.38;;;21.58;46.11
69971;BME280;57301;50.328;8.542;2023-04-23T07:07:59;97805.38;;;20.66;47.08
69971;BME280;57301;50.328;8.542;2023-04-23T07:10:26;97807.38;;;19.57;49.19
69971;BME280;57301;50.328;8.542;2023-04-23T07:12:52;97805.72;;;21.57;46.55
69971;BME280;57301;50.328;8.542;2023-04-23T07:15:19;97807.69;;;22.47;45.08
69971;BME280;57301;50.328;8.542;2023-04-23T07:17:46;97811.34;;;21.15;48.23
69971;BME280;57301;50.328;8.542;2023-04-23T07:20:12;97789.09;;;20.54;47.89
69971;BME280;57301;50.328;8.542;2023-04-23T07:22:39;97769.47;;;21.34;46.45
69971;BME280;57301;50.328;8.542;2023-04-23T07:25:05;97768.16;;;21.94;46.07
69971;BME280;57301;50.328;8.542;2023-04-23T07:27:34;97786.50;;;20.83;46.78
69971;BME280;57301;50.328;8.542;2023-04-23T07:30:00;97784.25;;;20.68;46.18
69971;BME280;57301;50.328;8.542;2023-04-23T07:32:27;97777.28;;;19.53;50.30
69971;BME280;57301;50.328;8.542;2023-04-23T07:34:54;97771.75;;;21.14;48.80
69971;BME280;57301;50.328;8.542;2023-04-23T07:37:24;97767.75;;;22.47;44.73
69971;BME280;57301;50.328;8.542;2023-04-23T07:39:50;97762.28;;;21.68;47.05
69971;BME280;57301;50.328;8.542;2023-04-23T07:42:18;97757.78;;;22.53;45.08
69971;BME280;57301;50.328;8.542;2023-04-23T07:44:45;97758.50;;;22.48;44.92
69971;BME280;57301;50.328;8.542;2023-04-23T07:47:11;97756.41;;;22.05;45.88
69971;BME280;57301;50.328;8.542;2023-04-23T07:49:38;97767.56;;;22.54;44.74
69971;BME280;57301;50.328;8.542;2023-04-23T07:52:05;97778.19;;;22.39;46.49
69971;BME280;57301;50.328;8.542;2023-04-23T07:54:31;97780.59;;;20.86;47.44
69971;BME280;57301;50.328;8.542;2023-04-23T07:56:58;97781.22;;;21.80;46.34
69971;BME280;57301;50.328;8.542;2023-04-23T07:59:24;97761.47;;;22.13;47.47
69971;BME280;57301;50.328;8.542;2023-04-23T08:01:51;97756.97;;;19.93;48.59
69971;BME280;57301;50.328;8.542;2023-04-23T08:04:18;97762.84;;;20.78;48.00
69971;BME280;57301;50.328;8.542;2023-04-23T08:06:44;97747.47;;;20.25;48.41
69971;BME280;57301;50.328;8.542;2023-04-23T08:09:11;97746.78;;;19.65;48.25
69971;BME280;57301;50.328;8.542;2023-04-23T08:11:37;97745.41;;;21.38;47.46
69971;BME280;57301;50.328;8.542;2023-04-23T08:14:04;97750.78;;;20.27;46.91
69971;BME280;57301;50.328;8.542;2023-04-23T08:16:31;97749.25;;;19.48;48.27
69971;BME280;57301;50.328;8.542;2023-04-23T08:18:58;97745.00;;;20.12;49.08
69971;BME280;57301;50.328;8.542;2023-04-23T08:21:32;97738.53;;;20.01;48.99
69971;BME280;57301;50.328;8.542;2023-04-23T08:23:58;97738.41;;;21.02;47.43
69971;BME280;57301;50.328;8.542;2023-04-23T08:26:25;97741.97;;;20.90;48.29
69971;BME280;57301;50.328;8.542;2023-04-23T08:28:52;97737.72;;;20.36;48.63
69971;BME280;57301;50.328;8.542;2023-04-23T08:31:18;97740.44;;;20.95;47.55
69971;BME280;57301;50.328;8.542;2023-04-23T08:33:52;97735.81;;;21.76;45.98
69971;BME280;57301;50.328;8.542;2023-04-23T08:36:19;97738.03;;;20.98;49.67
69971;BME280;57301;50.328;8.542;2023-04-23T08:38:45;97743.41;;;21.22;49.05
69971;BME280;57301;50.328;8.542;2023-04-23T08:41:13;97744.19;;;21.45;47.37
69971;BME280;57301;50.328;8.542;2023-04-23T08:43:46;97746.97;;;19.63;49.88
69971;BME280;57301;50.328;8.542;2023-04-23T08:46:17;97752.13;;;21.24;48.58
69971;BME280;57301;50.328;8.542;2023-04-23T08:48:44;97748.16;;;21.14;46.77
69971;BME280;57301;50.328;8.542;2023-04-23T08:51:16;97763.16;;;18.35;52.94
69971;BME280;57301;50.328;8.542;2023-04-23T08:53:44;97762.63;;;19.43;51.96
69971;BME280;57301;50.328;8.542;2023-04-23T08:56:14;97760.88;;;20.08;49.52
69971;BME280;57301;50.328;8.542;2023-04-23T08:58:41;97763.19;;;18.78;53.22
69971;BME280;57301;50.328;8.542;2023-04-23T09:01:08;97761.94;;;18.56;52.74
69971;BME280;57301;50.328;8.542;2023-04-23T09:03:35;97771.81;;;17.04;55.53
69971;BME280;57301;50.328;8.542;2023-04-23T09:06:03;97767.59;;;17.28;55.57
69971;BME280;57301;50.328;8.542;2023-04-23T09:08:31;97764.81;;;16.96;56.25
69971;BME280;57301;50.328;8.542;2023-04-23T09:11:00;97759.38;;;18.17;55.23
69971;BME280;57301;50.328;8.542;2023-04-23T09:13:29;97768.31;;;18.18;54.30
69971;BME280;57301;50.328;8.542;2023-04-23T09:15:57;97769.41;;;16.69;57.16
69971;BME280;57301;50.328;8.542;2023-04-23T09:18:23;97770.75;;;17.11;56.94
69971;BME280;57301;50.328;8.542;2023-04-23T09:20:51;97749.94;;;17.77;57.94
69971;BME280;57301;50.328;8.542;2023-04-23T09:23:21;97749.84;;;18.15;54.54
69971;BME280;57301;50.328;8.542;2023-04-23T09:25:48;97756.78;;;18.29;52.83
69971;BME280;57301;50.328;8.542;2023-04-23T09:28:15;97744.88;;;17.10;55.68
69971;BME280;57301;50.328;8.542;2023-04-23T09:30:45;97746.81;;;17.73;54.12
69971;BME280;57301;50.328;8.542;2023-04-23T09:33:15;97741.28;;;19.04;52.95
69971;BME280;57301;50.328;8.542;2023-04-23T09:35:42;97733.78;;;18.88;50.23
69971;BME280;57301;50.328;8.542;2023-04-23T09:38:09;97732.53;;;18.66;50.50
69971;BME280;57301;50.328;8.542;2023-04-23T09:40:36;97723.31;;;18.12;51.52
69971;BME280;57301;50.328;8.542;2023-04-23T09:43:04;97719.09;;;18.16;51.19
69971;BME280;57301;50.328;8.542;2023-04-23T09:45:30;97717.56;;;18.88;52.25
69971;BME280;57301;50.328;8.542;2023-04-23T09:47:58;97722.31;;;18.93;51.17
69971;BME280;57301;50.328;8.542;2023-04-23T09:50:36;97716.47;;;19.56;50.70
69971;BME280;57301;50.328;8.542;2023-04-23T09:53:05;97711.44;;;20.13;50.11
69971;BME280;57301;50.328;8.542;2023-04-23T09:55:37;97698.75;;;20.13;49.23
69971;BME280;57301;50.328;8.542;2023-04-23T09:58:09;97706.81;;;19.78;52.07
69971;BME280;57301;50.328;8.542;2023-04-23T10:00:37;97707.72;;;20.49;49.09
69971;BME280;57301;50.328;8.542;2023-04-23T10:03:05;97702.88;;;19.63;49.53
69971;BME280;57301;50.328;8.542;2023-04-23T10:05:37;97692.75;;;20.35;49.55
69971;BME280;57301;50.328;8.542;2023-04-23T10:08:25;97687.69;;;20.62;47.25
69971;BME280;57301;50.328;8.542;2023-04-23T10:10:51;97698.59;;;19.25;47.21
69971;BME280;57301;50.328;8.542;2023-04-23T10:13:38;97697.25;;;19.76;47.70
69971;BME280;57301;50.328;8.542;2023-04-23T10:16:05;97693.72;;;18.85;47.55
69971;BME280;57301;50.328;8.542;2023-04-23T10:18:49;97696.44;;;18.67;49.90
69971;BME280;57301;50.328;8.542;2023-04-23T10:21:17;97686.88;;;17.71;49.78
69971;BME280;57301;50.328;8.542;2023-04-23T10:23:46;97692.41;;;18.51;49.64
69971;BME280;57301;50.328;8.542;2023-04-23T10:26:14;97687.81;;;18.51;48.91
69971;BME280;57301;50.328;8.542;2023-04-23T10:28:46;97678.38;;;18.42;47.91
69971;BME280;57301;50.328;8.542;2023-04-23T10:31:13;97687.34;;;18.18;48.63
69971;BME280;57301;50.328;8.542;2023-04-23T10:33:42;97687.31;;;19.16;48.75
69971;BME280;57301;50.328;8.542;2023-04-23T10:36:24;97677.59;;;18.78;47.94
69971;BME280;57301;50.328;8.542;2023-04-23T10:38:54;97677.16;;;19.42;48.15
69971;BME280;57301;50.328;8.542;2023-04-23T10:41:37;97670.00;;;18.69;45.71
69971;BME280;57301;50.328;8.542;2023-04-23T10:44:04;97666.59;;;19.10;46.75
69971;BME280;57301;50.328;8.542;2023-04-23T10:46:32;97670.59;;;18.89;46.95
69971;BME280;57301;50.328;8.542;2023-04-23T10:49:11;97664.97;;;19.21;45.43
69971;BME280;57301;50.328;8.542;2023-04-23T10:51:45;97661.63;;;18.15;46.63
69971;BME280;57301;50.328;8.542;2023-04-23T10:54:18;97664.16;;;17.85;47.69
69971;BME280;57301;50.328;8.542;2023-04-23T10:56:44;97664.19;;;18.29;47.52
69971;BME280;57301;50.328;8.542;2023-04-23T10:59:18;97663.06;;;17.36;49.78
69971;BME280;57301;50.328;8.542;2023-04-23T11:01:46;97668.19;;;17.13;50.80
69971;BME280;57301;50.328;8.542;2023-04-23T11:04:26;97664.59;;;16.81;52.15
69971;BME280;57301;50.328;8.542;2023-04-23T11:06:56;97666.09;;;16.63;52.89
69971;BME280;57301;50.328;8.542;2023-04-23T11:09:40;97669.78;;;16.69;52.58
69971;BME280;57301;50.328;8.542;2023-04-23T11:12:10;97662.47;;;16.25;54.56
69971;BME280;57301;50.328;8.542;2023-04-23T11:14:41;97661.81;;;16.36;54.87
69971;BME280;57301;50.328;8.542;2023-04-23T11:17:13;97678.25;;;15.88;57.54
69971;BME280;57301;50.328;8.542;2023-04-23T11:22:47;97665.63;;;15.75;56.69
69971;BME280;57301;50.328;8.542;2023-04-23T11:25:25;97663.53;;;16.10;59.35
69971;BME280;57301;50.328;8.542;2023-04-23T11:27:53;97652.78;;;16.10;61.59
69971;BME280;57301;50.328;8.542;2023-04-23T11:30:25;97652.72;;;16.30;60.80
69971;BME280;57301;50.328;8.542;2023-04-23T11:32:54;97645.06;;;16.41;59.38
69971;BME280;57301;50.328;8.542;2023-04-23T11:35:24;97654.50;;;16.56;60.12
69971;BME280;57301;50.328;8.542;2023-04-23T11:37:55;97654.34;;;17.03;58.04
69971;BME280;57301;50.328;8.542;2023-04-23T11:40:22;97643.59;;;16.51;58.15
69971;BME280;57301;50.328;8.542;2023-04-23T11:42:51;97637.25;;;16.84;57.77
69971;BME280;57301;50.328;8.542;2023-04-23T11:45:21;97628.28;;;16.97;56.63
69971;BME280;57301;50.328;8.542;2023-04-23T11:47:49;97632.00;;;16.37;57.19
69971;BME280;57301;50.328;8.542;2023-04-23T11:50:21;97634.28;;;16.41;57.65
69971;BME280;57301;50.328;8.542;2023-04-23T11:52:48;97626.09;;;16.09;59.21
69971;BME280;57301;50.328;8.542;2023-04-23T11:55:15;97621.56;;;16.03;59.26
69971;BME280;57301;50.328;8.542;2023-04-23T11:57:47;97625.28;;;15.95;59.70
69971;BME280;57301;50.328;8.542;2023-04-23T12:00:21;97618.59;;;16.24;58.94
69971;BME280;57301;50.328;8.542;2023-04-23T12:05:32;97622.06;;;16.38;56.02
69971;BME280;57301;50.328;8.542;2023-04-23T12:10:52;97621.59;;;17.06;52.64
69971;BME280;57301;50.328;8.542;2023-04-23T12:13:22;97606.75;;;17.53;51.87
69971;BME280;57301;50.328;8.542;2023-04-23T12:15:54;97609.13;;;17.68;51.24
69971;BME280;57301;50.328;8.542;2023-04-23T12:18:31;97602.47;;;18.14;48.10
69971;BME280;57301;50.328;8.542;2023-04-23T12:21:05;97605.06;;;17.84;50.49
69971;BME280;57301;50.328;8.542;2023-04-23T12:35:48;97599.06;;;16.93;51.44
69971;BME280;57301;50.328;8.542;2023-04-23T12:38:26;97586.28;;;18.50;48.88
69971;BME280;57301;50.328;8.542;2023-04-23T12:40:54;97587.47;;;19.56;46.69
69971;BME280;57301;50.328;8.542;2023-04-23T12:43:21;97581.06;;;20.04;45.45
69971;BME280;57301;50.328;8.542;2023-04-23T12:45:47;97588.00;;;21.33;43.65
69971;BME280;57301;50.328;8.542;2023-04-23T12:48:14;97573.00;;;22.14;41.95
69971;BME280;57301;50.328;8.542;2023-04-23T12:50:41;97573.03;;;21.81;42.58
69971;BME280;57301;50.328;8.542;2023-04-23T12:53:08;97575.66;;;22.09;40.34
69971;BME280;57301;50.328;8.542;2023-04-23T12:55:34;97570.91;;;22.60;40.02
69971;BME280;57301;50.328;8.542;2023-04-23T12:58:01;97568.03;;;22.72;38.71
69971;BME280;57301;50.328;8.542;2023-04-23T13:00:27;97546.78;;;23.50;37.76
69971;BME280;57301;50.328;8.542;2023-04-23T13:02:54;97554.66;;;23.14;38.33
69971;BME280;57301;50.328;8.542;2023-04-23T13:05:22;97540.69;;;22.35;38.71
69971;BME280;57301;50.328;8.542;2023-04-23T13:07:49;97529.63;;;21.81;39.75
69971;BME280;57301;50.328;8.542;2023-04-23T13:10:15;97527.38;;;21.78;40.63
69971;BME280;57301;50.328;8.542;2023-04-23T13:12:42;97515.91;;;22.09;40.59
69971;BME280;57301;50.328;8.542;2023-04-23T13:15:08;97526.97;;;22.95;38.18
69971;BME280;57301;50.328;8.542;2023-04-23T13:17:37;97507.34;;;22.17;40.09
69971;BME280;57301;50.328;8.542;2023-04-23T13:20:04;97500.53;;;21.59;40.93
69971;BME280;57301;50.328;8.542;2023-04-23T13:22:31;97496.97;;;22.36;40.67
69971;BME280;57301;50.328;8.542;2023-04-23T13:24:58;97493.13;;;22.10;40.41